| time (UTC) | temp F | wind direction | speed knots | gust knots | rain 1hr in | rain 24hr in | rain mn in | humidity % | barometer mb |
| 20260506150042 | 76 | 0.0 | 0.0 | 0.00 | 0.00 | 0.00 | 50 | 1004.4 | |
| 20260506144531 | 76 | 0.0 | 0.0 | 0.00 | 0.00 | 0.00 | 50 | 1004.4 | |
| 20260506143019 | 75 | 0.0 | 0.0 | 0.00 | 0.00 | 0.00 | 50 | 1004.4 | |
| 20260506141508 | 76 | 0.0 | 0.0 | 0.00 | 0.00 | 0.00 | 49 | 1004.4 | |
| 20260506135956 | 77 | 0.0 | 0.0 | 0.00 | 0.00 | 0.00 | 48 | 1004.3 | |
| 20260506134444 | 76 | 0.0 | 0.0 | 0.00 | 0.00 | 0.00 | 48 | 1004.3 | |
| 20260506132933 | 78 | 0.0 | 0.0 | 0.00 | 0.00 | 0.00 | 47 | 1004.3 | |
| 20260506131422 | 78 | 0.0 | 0.0 | 0.00 | 0.00 | 0.00 | 49 | 1004.1 | |
| 20260506125910 | 76 | 0.0 | 0.0 | 0.00 | 0.00 | 0.00 | 49 | 1004.2 | |
| 20260506124359 | 77 | 0.0 | 0.0 | 0.00 | 0.00 | 0.00 | 49 | 1004.2 | |
| 20260506122847 | 78 | 0.0 | 0.0 | 0.00 | 0.00 | 0.00 | 49 | 1004.4 | |
| 20260506115824 | 77 | 0.0 | 0.0 | 0.00 | 0.00 | 0.00 | 49 | 1004.4 | |
| 20260506114312 | 77 | 0.0 | 0.0 | 0.00 | 0.00 | 0.00 | 49 | 1004.4 | |
| 20260506112800 | 76 | 0.0 | 0.0 | 0.00 | 0.00 | 0.00 | 48 | 1004.3 | |
| 20260506111249 | 77 | 0.0 | 0.0 | 0.00 | 0.00 | 0.00 | 48 | 1004.2 | |
| 20260506105737 | 78 | 0.0 | 0.0 | 0.00 | 0.00 | 0.00 | 48 | 1004.3 | |
| 20260506104226 | 78 | 0.0 | 0.0 | 0.00 | 0.00 | 0.00 | 47 | 1004.3 | |
| 20260506102715 | 78 | 0.0 | 0.0 | 0.00 | 0.00 | 0.00 | 45 | 1004.3 | |
| 20260506101203 | 77 | 0.0 | 0.0 | 0.00 | 0.00 | 0.00 | 46 | 1004.3 | |
| 20260506094140 | 83 | 0.0 | 0.0 | 0.00 | 0.00 | 0.00 | 41 | 1004.3 | |
| 20260506092629 | 91 | 0.0 | 0.0 | 0.00 | 0.00 | 0.00 | 39 | 1004.6 | |
| 20260506091118 | 79 | 0.0 | 0.0 | 0.00 | 0.00 | 0.00 | 50 | 1004.4 | |
| 20260506085607 | 77 | 0.0 | 0.0 | 0.00 | 0.00 | 0.00 | 48 | 1004.3 | |
| 20260506084056 | 78 | 0.0 | 0.0 | 0.00 | 0.00 | 0.00 | 48 | 1004.3 | |
| 20260506082544 | 76 | 0.0 | 0.0 | 0.00 | 0.00 | 0.00 | 51 | 1004.3 | |
| 20260506081033 | 75 | 0.0 | 0.0 | 0.00 | 0.00 | 0.00 | 52 | 1004.1 | |
| 20260506072459 | 73 | 0.0 | 0.0 | 0.00 | 0.00 | 0.00 | 65 | 1004.3 | |
| 20260506070947 | 71 | 0.0 | 0.0 | 0.00 | 0.00 | 0.00 | 71 | 1004.3 | |
| 20260506062411 | 67 | 0.0 | 0.0 | 0.00 | 0.00 | 0.00 | 91 | 1004.5 | |
| 20260506060900 | 65 | 0.0 | 0.0 | 0.00 | 0.00 | 0.00 | 99 | 1004.6 | |
| 20260506050810 | 58 | 0.0 | 0.0 | 0.00 | 0.00 | 0.00 | 100 | 1004.8 | |
| 20260506043746 | 55 | 0.0 | 0.0 | 0.00 | 0.00 | 0.00 | 100 | 1004.5 | |
| 20260506042235 | 54 | 0.0 | 0.0 | 0.00 | 0.00 | 0.00 | 100 | 1004.6 | |
| 20260506040723 | 54 | 0.0 | 0.0 | 0.00 | 0.00 | 0.00 | 100 | 1004.6 | |
| 20260506035211 | 54 | 0.0 | 0.0 | 0.00 | 0.00 | 0.00 | 100 | 1004.8 | |
| 20260506033659 | 54 | 0.0 | 0.0 | 0.00 | 0.00 | 0.00 | 100 | 1004.7 | |
| 20260506032148 | 54 | 0.0 | 0.0 | 0.00 | 0.00 | 0.00 | 100 | 1004.7 | |
| 20260506030637 | 54 | 0.0 | 0.0 | 0.00 | 0.00 | 0.00 | 100 | 1004.8 | |
| 20260506025126 | 53 | 0.0 | 0.0 | 0.00 | 0.00 | 0.00 | 100 | 1004.8 | |
| 20260506023615 | 54 | 0.0 | 0.0 | 0.00 | 0.00 | 0.00 | 100 | 1004.9 | |
| 20260506022103 | 54 | 0.0 | 0.0 | 0.00 | 0.00 | 0.00 | 100 | 1005.0 | |
| 20260506020550 | 55 | 0.0 | 0.0 | 0.00 | 0.00 | 0.00 | 100 | 1005.2 | |
| 20260506015037 | 55 | 0.0 | 0.0 | 0.00 | 0.00 | 0.00 | 100 | 1005.1 | |
| 20260506013527 | 55 | 0.0 | 0.0 | 0.00 | 0.00 | 0.00 | 100 | 1005.2 | |
| 20260506012015 | 56 | 0.0 | 0.0 | 0.00 | 0.00 | 0.00 | 100 | 1005.2 | |
| 20260506010504 | 56 | 0.0 | 0.0 | 0.00 | 0.00 | 0.00 | 100 | 1005.2 | |
| 20260506004953 | 57 | 0.0 | 0.0 | 0.00 | 0.00 | 0.00 | 100 | 1005.3 | |
| 20260506003441 | 58 | 0.0 | 0.0 | 0.00 | 0.00 | 0.00 | 100 | 1005.1 |